createdAt,value
2022-07-25T00:00:01.507Z,95.27
2022-07-25T00:01:01.426Z,96.28
2022-07-25T00:02:01.461Z,96.28
2022-07-25T00:03:01.409Z,95.01
2022-07-25T00:04:01.465Z,95.92
2022-07-25T00:05:01.459Z,95.11
2022-07-25T00:06:01.417Z,95.21
2022-07-25T00:07:02.122Z,95.62
2022-07-25T00:08:02.190Z,95.51
2022-07-25T00:09:02.081Z,95.62
2022-07-25T00:10:02.151Z,95.51
2022-07-25T00:11:02.091Z,94.81
2022-07-25T00:12:01.348Z,95.21
2022-07-25T00:13:01.296Z,95.11
2022-07-25T00:14:01.307Z,96.33
2022-07-25T00:15:01.287Z,96.12
2022-07-25T00:16:01.351Z,95.82
2022-07-25T00:17:01.268Z,94.71
2022-07-25T00:18:01.408Z,95.11
2022-07-25T00:19:01.239Z,95.82
2022-07-25T00:20:01.231Z,96.12
2022-07-25T00:21:01.240Z,95.11
2022-07-25T00:22:01.220Z,95.42
2022-07-25T00:23:01.208Z,95.51
2022-07-25T00:24:01.239Z,95.42
2022-07-25T00:25:01.182Z,95.72
2022-07-25T00:26:01.250Z,96.22
2022-07-25T00:27:01.180Z,96.22
2022-07-25T00:28:01.163Z,95.62
2022-07-25T00:29:01.134Z,96.22
2022-07-25T00:30:01.162Z,96.02
2022-07-25T00:31:01.156Z,95.62
2022-07-25T00:32:01.133Z,96.02
2022-07-25T00:33:01.098Z,96.33
2022-07-25T00:34:01.100Z,95.97
2022-07-25T00:35:01.103Z,95.26
2022-07-25T00:36:01.240Z,96.07
2022-07-25T00:37:01.062Z,95.92
2022-07-25T00:38:01.412Z,95.06
2022-07-25T00:39:01.887Z,95.72
2022-07-25T00:40:01.763Z,95.82
2022-07-25T00:41:01.008Z,94.40
2022-07-25T00:42:01.039Z,95.92
2022-07-25T00:43:00.986Z,94.91
2022-07-25T00:44:00.969Z,94.91
2022-07-25T00:45:01.009Z,94.40
2022-07-25T00:46:00.988Z,95.62
2022-07-25T00:47:00.967Z,94.60
2022-07-25T00:48:00.970Z,94.81
2022-07-25T00:49:01.056Z,95.31
2022-07-25T00:50:00.908Z,95.31
2022-07-25T00:51:00.928Z,95.72
2022-07-25T00:52:00.899Z,95.21
2022-07-25T00:53:00.898Z,94.81
2022-07-25T00:54:02.195Z,94.60
2022-07-25T00:55:02.213Z,94.00
2022-07-25T00:56:01.661Z,94.30
2022-07-25T00:57:01.537Z,95.42
2022-07-25T00:58:01.630Z,95.31
2022-07-25T00:59:01.356Z,95.31
2022-07-25T01:00:01.776Z,94.50
2022-07-25T01:01:01.440Z,94.10
2022-07-25T01:02:03.701Z,93.70
2022-07-25T01:03:00.937Z,94.81
2022-07-25T01:04:02.070Z,94.40
2022-07-25T01:05:00.756Z,94.30
2022-07-25T01:06:00.976Z,94.50
2022-07-25T01:07:00.744Z,95.01
2022-07-25T01:08:00.729Z,94.91
2022-07-25T01:09:00.707Z,94.91
2022-07-25T01:10:00.694Z,95.11
2022-07-25T01:11:00.685Z,94.30
2022-07-25T01:12:00.846Z,93.70
2022-07-25T01:13:00.675Z,94.71
2022-07-25T01:14:00.655Z,95.01
2022-07-25T01:15:00.923Z,96.12
2022-07-25T01:16:00.693Z,95.31
2022-07-25T01:17:00.619Z,95.01
2022-07-25T01:18:00.658Z,95.11
2022-07-25T01:19:00.624Z,95.31
2022-07-25T01:20:00.587Z,95.21
2022-07-25T01:21:00.585Z,94.91
2022-07-25T01:22:00.570Z,94.40
2022-07-25T01:23:00.556Z,95.01
2022-07-25T01:24:01.000Z,94.60
2022-07-25T01:25:00.538Z,94.50
2022-07-25T01:26:00.531Z,95.11
2022-07-25T01:27:00.525Z,95.62
2022-07-25T01:28:00.512Z,94.91
2022-07-25T01:29:00.492Z,95.11
2022-07-25T01:30:00.521Z,95.72
2022-07-25T01:31:00.528Z,95.42
2022-07-25T01:32:00.464Z,95.92
2022-07-25T01:33:00.455Z,94.71
2022-07-25T01:34:01.442Z,94.71
2022-07-25T01:35:00.434Z,94.20
2022-07-25T01:36:00.564Z,94.50
2022-07-25T01:37:00.417Z,95.42
2022-07-25T01:38:00.412Z,94.91
2022-07-25T01:39:00.410Z,95.11
2022-07-25T01:40:00.404Z,95.82
2022-07-25T01:41:00.381Z,95.92
2022-07-25T01:42:00.396Z,94.40
2022-07-25T01:43:00.346Z,95.11
2022-07-25T01:44:00.345Z,95.72
2022-07-25T01:45:00.329Z,94.91
2022-07-25T01:46:00.420Z,95.72
2022-07-25T01:47:00.313Z,95.92
2022-07-25T01:48:00.329Z,95.21
2022-07-25T01:49:00.371Z,95.62
2022-07-25T01:50:00.281Z,95.92
2022-07-25T01:51:00.259Z,96.22
2022-07-25T01:52:00.267Z,95.42
2022-07-25T01:53:00.240Z,95.21
2022-07-25T01:54:00.269Z,95.11
2022-07-25T01:55:00.252Z,95.31
2022-07-25T01:56:00.211Z,96.02
2022-07-25T01:57:00.200Z,95.82
2022-07-25T01:58:00.195Z,95.21
2022-07-25T01:59:00.193Z,96.12
2022-07-25T02:00:00.266Z,95.82
2022-07-25T02:01:00.215Z,95.72
2022-07-25T02:02:00.264Z,95.31
2022-07-25T02:03:00.201Z,94.60
2022-07-25T02:04:00.143Z,96.33
2022-07-25T02:05:00.156Z,95.92
2022-07-25T02:06:00.346Z,95.82
2022-07-25T02:07:00.115Z,95.42
2022-07-25T02:08:00.094Z,95.42
2022-07-25T02:09:00.026Z,95.51
2022-07-25T02:10:00.009Z,95.78
2022-07-25T02:11:00.018Z,95.67
2022-07-25T02:12:00.098Z,95.62
2022-07-25T02:12:59.977Z,95.27
2022-07-25T02:13:59.969Z,95.78
2022-07-25T02:14:59.958Z,95.47
2022-07-25T02:15:59.947Z,94.60
2022-07-25T02:16:59.979Z,95.42
2022-07-25T02:17:59.972Z,94.71
2022-07-25T02:18:59.920Z,94.91
2022-07-25T02:19:59.912Z,96.83
2022-07-25T02:20:59.896Z,95.92
2022-07-25T02:21:59.888Z,94.91
2022-07-25T02:22:59.871Z,95.62
2022-07-25T02:23:59.906Z,95.11
2022-07-25T02:24:59.862Z,94.91
2022-07-25T02:25:59.842Z,95.31
2022-07-25T02:26:59.824Z,94.96
2022-07-25T02:27:59.822Z,96.08
2022-07-25T02:28:59.804Z,95.37
2022-07-25T02:29:59.832Z,95.67
2022-07-25T02:30:59.834Z,95.57
2022-07-25T02:31:59.777Z,95.37
2022-07-25T02:32:59.781Z,95.57
2022-07-25T02:33:59.754Z,95.17
2022-07-25T02:34:59.745Z,94.46
2022-07-25T02:36:00.564Z,94.86
2022-07-25T02:36:59.724Z,95.37
2022-07-25T02:37:59.724Z,95.27
2022-07-25T02:38:59.714Z,95.17
2022-07-25T02:39:59.708Z,95.57
2022-07-25T02:40:59.686Z,95.98
2022-07-25T02:41:59.826Z,95.87
2022-07-25T02:42:59.667Z,95.47
2022-07-25T02:43:59.650Z,95.78
2022-07-25T02:44:59.639Z,96.08
2022-07-25T02:45:59.725Z,95.78
2022-07-25T02:46:59.620Z,95.67
2022-07-25T02:47:59.657Z,95.98
2022-07-25T02:48:59.656Z,95.98
2022-07-25T02:49:59.602Z,96.28
2022-07-25T02:50:59.578Z,95.83
2022-07-25T02:51:59.571Z,96.84
2022-07-25T02:52:59.561Z,96.03
2022-07-25T02:53:59.581Z,96.13
2022-07-25T02:54:59.533Z,96.23
2022-07-25T02:55:59.539Z,95.83
2022-07-25T02:56:59.511Z,96.64
2022-07-25T02:58:00.077Z,95.83
2022-07-25T02:58:59.494Z,96.23
2022-07-25T02:59:59.529Z,96.34
2022-07-25T03:00:59.496Z,96.03
2022-07-25T03:01:59.466Z,96.34
2022-07-25T03:02:59.457Z,96.64
2022-07-25T03:03:59.500Z,96.03
2022-07-25T03:04:59.426Z,96.23
2022-07-25T03:05:59.466Z,96.23
2022-07-25T03:06:59.423Z,95.93
2022-07-25T03:07:59.403Z,96.13
2022-07-25T03:08:59.389Z,95.63
2022-07-25T03:09:59.379Z,96.13
2022-07-25T03:10:59.366Z,96.03
2022-07-25T03:11:59.397Z,96.03
2022-07-25T03:12:59.346Z,95.63
2022-07-25T03:13:59.344Z,96.13
2022-07-25T03:14:59.345Z,95.93
2022-07-25T03:15:59.309Z,95.73
2022-07-25T03:16:59.392Z,95.32
2022-07-25T03:17:59.473Z,95.53
2022-07-25T03:18:59.284Z,95.53
2022-07-25T03:19:59.273Z,95.53
2022-07-25T03:20:59.469Z,95.83
2022-07-25T03:21:59.269Z,95.53
2022-07-25T03:22:59.242Z,95.63
2022-07-25T03:23:59.332Z,95.12
2022-07-25T03:24:59.218Z,95.53
2022-07-25T03:25:59.200Z,95.22
2022-07-25T03:26:59.201Z,95.02
2022-07-25T03:27:59.191Z,95.02
2022-07-25T03:28:59.187Z,95.22
2022-07-25T03:29:59.213Z,95.32
2022-07-25T03:30:59.153Z,95.32
2022-07-25T03:31:59.188Z,95.22
2022-07-25T03:32:59.134Z,95.12
2022-07-25T03:33:59.124Z,95.32
2022-07-25T03:34:59.117Z,95.43
2022-07-25T03:35:59.246Z,95.22
2022-07-25T03:36:59.104Z,95.02
2022-07-25T03:37:59.085Z,95.43
2022-07-25T03:38:59.078Z,95.02
2022-07-25T03:39:59.063Z,95.53
2022-07-25T03:40:59.067Z,95.93
2022-07-25T03:41:59.097Z,95.37
2022-07-25T03:42:59.047Z,95.98
2022-07-25T03:43:59.025Z,95.67
2022-07-25T03:44:59.007Z,95.57
2022-07-25T03:45:59.046Z,95.47
2022-07-25T03:46:58.987Z,95.27
2022-07-25T03:47:59.020Z,95.47
2022-07-25T03:48:59.000Z,95.27
2022-07-25T03:49:58.959Z,95.27
2022-07-25T03:51:02.291Z,95.17
2022-07-25T03:51:59.929Z,95.98
2022-07-25T03:52:58.920Z,95.17
2022-07-25T03:53:58.959Z,95.27
2022-07-25T03:54:58.901Z,95.57
2022-07-25T03:55:58.893Z,95.47
2022-07-25T03:56:58.880Z,95.47
2022-07-25T03:57:58.872Z,95.57
2022-07-25T03:58:58.856Z,95.78
2022-07-25T03:59:58.889Z,95.72
2022-07-25T04:00:58.861Z,95.92
2022-07-25T04:01:58.895Z,96.12
2022-07-25T04:02:58.814Z,96.22
2022-07-25T04:03:58.813Z,95.92
2022-07-25T04:04:58.793Z,95.92
2022-07-25T04:05:58.844Z,96.02
2022-07-25T04:06:58.777Z,96.42
2022-07-25T04:07:58.783Z,96.63
2022-07-25T04:08:58.773Z,96.22
2022-07-25T04:09:58.765Z,96.73
2022-07-25T04:10:58.736Z,95.87
2022-07-25T04:11:58.879Z,96.38
2022-07-25T04:12:58.717Z,95.98
2022-07-25T04:13:58.704Z,95.87
2022-07-25T04:14:58.700Z,96.38
2022-07-25T04:15:58.686Z,96.28
2022-07-25T04:16:58.721Z,95.87
2022-07-25T04:17:58.715Z,95.98
2022-07-25T04:18:58.680Z,95.93
2022-07-25T04:19:58.646Z,95.83
2022-07-25T04:20:58.631Z,95.53
2022-07-25T04:21:58.620Z,94.92
2022-07-25T04:22:58.614Z,95.63
2022-07-25T04:23:58.629Z,95.02
2022-07-25T04:24:58.613Z,94.57
2022-07-25T04:25:58.570Z,94.47
2022-07-25T04:26:58.581Z,94.07
2022-07-25T04:27:58.558Z,93.96
2022-07-25T04:28:58.552Z,93.82
2022-07-25T04:29:58.584Z,95.03
2022-07-25T04:30:58.533Z,94.23
2022-07-25T04:31:58.594Z,94.12
2022-07-25T04:32:58.496Z,94.32
2022-07-25T04:33:58.496Z,93.72
2022-07-25T04:34:58.483Z,94.02
2022-07-25T04:35:58.526Z,93.52
2022-07-25T04:36:58.465Z,93.98
2022-07-25T04:37:58.460Z,93.57
2022-07-25T04:38:58.438Z,93.57
2022-07-25T04:39:58.438Z,93.17
2022-07-25T04:40:58.457Z,92.86
2022-07-25T04:41:58.454Z,93.37
2022-07-25T04:42:58.398Z,93.77
2022-07-25T04:43:58.407Z,94.08
2022-07-25T04:44:58.381Z,93.27
2022-07-25T04:45:58.443Z,93.17
2022-07-25T04:46:58.360Z,92.77
2022-07-25T04:47:58.399Z,93.27
2022-07-25T04:48:58.458Z,93.53
2022-07-25T04:49:58.323Z,93.23
2022-07-25T04:50:58.310Z,92.52
2022-07-25T04:51:58.300Z,92.82
2022-07-25T04:52:58.291Z,92.22
2022-07-25T04:53:58.332Z,93.53
2022-07-25T04:54:58.261Z,92.62
2022-07-25T04:55:58.255Z,93.63
2022-07-25T04:56:58.272Z,92.82
2022-07-25T04:57:58.233Z,93.02
2022-07-25T04:59:01.849Z,92.62
2022-07-25T04:59:59.248Z,92.82
2022-07-25T05:00:58.387Z,93.02
2022-07-25T05:01:58.253Z,93.43
2022-07-25T05:02:58.186Z,92.93
2022-07-25T05:03:58.205Z,92.93
2022-07-25T05:04:58.164Z,93.02
2022-07-25T05:05:58.197Z,93.59
2022-07-25T05:06:58.145Z,93.29
2022-07-25T05:07:58.140Z,92.47
2022-07-25T05:08:58.115Z,92.78
2022-07-25T05:09:58.108Z,92.58
2022-07-25T05:10:58.099Z,92.78
2022-07-25T05:11:58.141Z,92.62
2022-07-25T05:12:58.077Z,92.72
2022-07-25T05:13:58.068Z,92.52
2022-07-25T05:14:58.049Z,93.43
2022-07-25T05:15:58.097Z,92.72
2022-07-25T05:16:58.040Z,92.93
2022-07-25T05:17:58.070Z,92.82
2022-07-25T05:18:58.010Z,92.82
2022-07-25T05:19:58.000Z,93.13
2022-07-25T05:20:57.991Z,92.62
2022-07-25T05:21:57.987Z,93.02
2022-07-25T05:22:57.980Z,93.13
2022-07-25T05:23:58.011Z,93.53
2022-07-25T05:24:58.349Z,93.13
2022-07-25T05:25:57.931Z,93.13
2022-07-25T05:26:57.933Z,93.33
2022-07-25T05:27:58.637Z,93.53
2022-07-25T05:28:57.903Z,93.33
2022-07-25T05:29:57.937Z,94.04
2022-07-25T05:30:57.887Z,93.13
2022-07-25T05:31:57.933Z,93.49
2022-07-25T05:32:57.880Z,92.88
2022-07-25T05:33:57.857Z,93.79
2022-07-25T05:34:57.860Z,92.98
2022-07-25T05:35:57.878Z,92.78
2022-07-25T05:36:57.816Z,92.78
2022-07-25T05:37:57.807Z,92.78
2022-07-25T05:38:57.797Z,92.58
2022-07-25T05:39:57.789Z,92.78
2022-07-25T05:40:57.778Z,93.18
2022-07-25T05:41:57.995Z,93.29
2022-07-25T05:43:02.561Z,93.59
2022-07-25T05:43:58.745Z,93.59
2022-07-25T05:44:57.749Z,93.59
2022-07-25T05:45:57.733Z,93.79
2022-07-25T05:46:57.788Z,93.18
2022-07-25T05:47:57.806Z,92.98
2022-07-25T05:48:57.731Z,92.78
2022-07-25T05:49:57.681Z,93.38
2022-07-25T05:50:57.677Z,93.59
2022-07-25T05:51:57.730Z,93.49
2022-07-25T05:52:57.651Z,93.49
2022-07-25T05:53:57.813Z,93.59
2022-07-25T05:54:57.637Z,93.59
2022-07-25T05:55:57.623Z,94.39
2022-07-25T05:56:57.614Z,93.89
2022-07-25T05:57:57.613Z,93.93
2022-07-25T05:58:57.585Z,94.64
2022-07-25T05:59:57.620Z,94.64
2022-07-25T06:00:57.605Z,94.24
2022-07-25T06:01:57.609Z,94.84
2022-07-25T06:02:57.722Z,95.04
2022-07-25T06:03:57.536Z,94.74
2022-07-25T06:04:57.545Z,95.04
2022-07-25T06:05:57.550Z,95.45
2022-07-25T06:06:57.507Z,95.55
2022-07-25T06:07:57.490Z,95.04
2022-07-25T06:08:57.479Z,95.14
2022-07-25T06:09:57.518Z,94.74
2022-07-25T06:10:57.460Z,95.45
2022-07-25T06:11:59.848Z,95.35
2022-07-25T06:12:57.446Z,95.35
2022-07-25T06:13:57.444Z,95.04
2022-07-25T06:14:57.431Z,94.64
2022-07-25T06:15:57.418Z,95.10
2022-07-25T06:16:57.401Z,95.50
2022-07-25T06:17:57.731Z,94.39
2022-07-25T06:18:57.381Z,95.10
2022-07-25T06:19:57.382Z,95.00
2022-07-25T06:20:57.362Z,95.40
2022-07-25T06:21:57.353Z,96.11
2022-07-25T06:22:57.346Z,94.70
2022-07-25T06:23:57.493Z,94.29
2022-07-25T06:24:57.314Z,95.40
2022-07-25T06:25:57.307Z,95.50
2022-07-25T06:26:57.304Z,94.59
2022-07-25T06:27:57.287Z,95.50
2022-07-25T06:28:57.288Z,95.61
2022-07-25T06:29:57.442Z,95.70
2022-07-25T06:30:57.274Z,95.75
2022-07-25T06:31:57.286Z,95.75
2022-07-25T06:32:57.248Z,95.75
2022-07-25T06:33:57.230Z,96.15
2022-07-25T06:34:57.209Z,95.55
2022-07-25T06:35:57.229Z,95.04
2022-07-25T06:36:57.192Z,95.55
2022-07-25T06:37:57.170Z,95.35
2022-07-25T06:38:57.170Z,96.01
2022-07-25T06:39:57.158Z,96.25
2022-07-25T06:40:57.153Z,96.05
2022-07-25T06:41:57.210Z,96.66
2022-07-25T06:42:57.128Z,96.05
2022-07-25T06:43:57.124Z,95.55
2022-07-25T06:44:57.107Z,96.86
2022-07-25T06:45:57.103Z,97.16
2022-07-25T06:46:57.120Z,97.36
2022-07-25T06:47:57.542Z,96.76
2022-07-25T06:48:57.181Z,96.96
2022-07-25T06:49:57.053Z,97.27
2022-07-25T06:50:57.043Z,96.25
2022-07-25T06:51:57.050Z,97.97
2022-07-25T06:52:57.031Z,97.27
2022-07-25T06:53:57.044Z,97.47
2022-07-25T06:54:56.998Z,96.96
2022-07-25T06:55:56.985Z,97.97
2022-07-25T06:56:56.989Z,96.86
2022-07-25T06:57:56.965Z,97.11
2022-07-25T06:58:56.960Z,97.71
2022-07-25T06:59:56.990Z,97.91
2022-07-25T07:00:57.026Z,97.71
2022-07-25T07:01:56.927Z,97.61
2022-07-25T07:02:56.974Z,98.42
2022-07-25T07:03:56.913Z,97.71
2022-07-25T07:04:56.899Z,98.72
2022-07-25T07:05:57.080Z,98.82
2022-07-25T07:06:56.885Z,97.91
2022-07-25T07:07:56.859Z,98.52
2022-07-25T07:08:56.851Z,98.52
2022-07-25T07:09:56.844Z,98.67
2022-07-25T07:10:56.831Z,98.77
2022-07-25T07:11:56.863Z,98.52
2022-07-25T07:12:56.955Z,98.02
2022-07-25T07:13:56.793Z,97.61
2022-07-25T07:14:56.792Z,98.82
2022-07-25T07:15:56.895Z,99.07
2022-07-25T07:16:56.779Z,99.18
2022-07-25T07:17:56.904Z,98.97
2022-07-25T07:18:56.759Z,99.13
2022-07-25T07:19:56.746Z,99.18
2022-07-25T07:20:56.745Z,98.77
2022-07-25T07:21:56.722Z,98.67
2022-07-25T07:22:56.715Z,97.81
2022-07-25T07:23:56.969Z,98.32
2022-07-25T07:24:56.686Z,99.13
2022-07-25T07:25:56.678Z,98.93
2022-07-25T07:26:56.681Z,98.93
2022-07-25T07:27:56.667Z,98.72
2022-07-25T07:28:56.663Z,99.13
2022-07-25T07:29:56.850Z,99.22
2022-07-25T07:31:15.679Z,98.72
2022-07-25T07:31:57.678Z,98.82
2022-07-25T07:32:56.610Z,99.13
2022-07-25T07:33:56.595Z,99.13
2022-07-25T07:34:56.579Z,98.72
2022-07-25T07:35:56.599Z,98.72
2022-07-25T07:36:56.565Z,98.42
2022-07-25T07:37:56.560Z,98.11
2022-07-25T07:38:56.548Z,98.42
2022-07-25T07:39:56.534Z,98.72
2022-07-25T07:40:56.533Z,99.02
2022-07-25T07:41:57.228Z,98.72
2022-07-25T07:42:56.494Z,97.91
2022-07-25T07:43:56.483Z,97.31
2022-07-25T07:44:56.482Z,98.72
2022-07-25T07:45:56.463Z,98.22
2022-07-25T07:46:56.522Z,98.22
2022-07-25T07:47:56.717Z,98.82
2022-07-25T07:48:56.502Z,97.51
2022-07-25T07:49:56.426Z,98.22
2022-07-25T07:50:56.470Z,99.13
2022-07-25T07:51:56.399Z,98.52
2022-07-25T07:52:56.385Z,98.32
2022-07-25T07:53:56.428Z,98.82
2022-07-25T07:54:59.329Z,98.32
2022-07-25T07:55:56.371Z,97.91
2022-07-25T07:56:56.347Z,99.43
2022-07-25T07:57:56.371Z,98.52
2022-07-25T07:58:56.330Z,99.13
2022-07-25T07:59:56.360Z,99.13
2022-07-25T08:00:56.308Z,98.42
2022-07-25T08:01:56.368Z,98.42
2022-07-25T08:02:56.340Z,98.68
2022-07-25T08:03:56.311Z,98.68
2022-07-25T08:04:56.270Z,98.58
2022-07-25T08:05:56.298Z,98.37
2022-07-25T08:06:56.241Z,98.17
2022-07-25T08:07:56.262Z,98.37
2022-07-25T08:08:56.239Z,98.78
2022-07-25T08:09:56.212Z,98.68
2022-07-25T08:10:58.927Z,99.48
2022-07-25T08:11:56.362Z,98.98
2022-07-25T08:12:56.234Z,98.58
2022-07-25T08:13:56.193Z,98.58
2022-07-25T08:14:56.324Z,98.47
2022-07-25T08:15:56.308Z,98.53
2022-07-25T08:16:56.265Z,98.83
2022-07-25T08:17:56.775Z,98.53
2022-07-25T08:18:56.117Z,98.33
2022-07-25T08:20:05.500Z,97.62
2022-07-25T08:20:57.163Z,98.02
2022-07-25T08:21:56.253Z,97.72
2022-07-25T08:22:56.788Z,98.02
2022-07-25T08:23:56.136Z,98.22
2022-07-25T08:24:57.205Z,98.63
2022-07-25T08:25:56.049Z,98.83
2022-07-25T08:26:56.155Z,98.43
2022-07-25T08:27:56.606Z,98.02
2022-07-25T08:29:17.752Z,98.13
2022-07-25T08:29:57.654Z,98.13
2022-07-25T08:30:56.070Z,97.52
2022-07-25T08:31:55.997Z,98.83
2022-07-25T08:32:56.517Z,98.93
2022-07-25T08:33:56.275Z,98.63
2022-07-25T08:34:55.952Z,98.93
2022-07-25T08:35:56.044Z,97.52
2022-07-25T08:36:55.941Z,99.04
2022-07-25T08:37:55.949Z,98.93
2022-07-25T08:38:55.916Z,98.13
2022-07-25T08:39:55.904Z,98.53
2022-07-25T08:40:55.891Z,97.72
2022-07-25T08:41:55.933Z,98.13
2022-07-25T08:42:55.876Z,98.73
2022-07-25T08:43:55.857Z,97.52
2022-07-25T08:44:55.876Z,97.62
2022-07-25T08:45:55.941Z,97.82
2022-07-25T08:46:55.896Z,98.43
2022-07-25T08:47:55.928Z,98.22
2022-07-25T08:48:55.876Z,98.33
2022-07-25T08:49:58.563Z,97.62
2022-07-25T08:50:56.791Z,98.53
2022-07-25T08:51:55.807Z,97.82
2022-07-25T08:53:10.447Z,98.08
2022-07-25T08:53:58.042Z,98.48
2022-07-25T08:54:59.829Z,97.38
2022-07-25T08:55:57.442Z,98.08
2022-07-25T08:56:59.789Z,97.38
2022-07-25T08:57:57.269Z,97.27
2022-07-25T08:58:55.712Z,96.87
2022-07-25T08:59:55.740Z,97.07
2022-07-25T09:00:55.679Z,97.47
2022-07-25T09:01:55.701Z,98.08
2022-07-25T09:02:55.726Z,97.67
2022-07-25T09:03:55.651Z,96.87
2022-07-25T09:04:55.631Z,97.07
2022-07-25T09:05:55.653Z,97.47
2022-07-25T09:06:55.632Z,97.47
2022-07-25T09:07:55.675Z,98.48
2022-07-25T09:08:55.656Z,97.88
2022-07-25T09:09:55.583Z,97.67
2022-07-25T09:10:55.564Z,97.78
2022-07-25T09:11:55.595Z,97.78
2022-07-25T09:12:55.546Z,97.98
2022-07-25T09:13:55.544Z,97.78
2022-07-25T09:14:55.545Z,98.38
2022-07-25T09:15:55.628Z,97.67
2022-07-25T09:16:55.516Z,97.38
2022-07-25T09:17:55.536Z,98.08
2022-07-25T09:18:55.499Z,97.67
2022-07-25T09:19:55.536Z,97.98
2022-07-25T09:20:55.466Z,97.38
2022-07-25T09:21:55.459Z,97.67
2022-07-25T09:22:55.450Z,98.38
2022-07-25T09:23:55.839Z,97.58
2022-07-25T09:24:55.429Z,98.28
2022-07-25T09:25:55.770Z,98.28
2022-07-25T09:26:56.390Z,97.27
2022-07-25T09:27:56.399Z,97.67
2022-07-25T09:28:55.388Z,98.18
2022-07-25T09:29:55.941Z,98.48
2022-07-25T09:30:56.134Z,98.18
2022-07-25T09:31:55.722Z,98.38
2022-07-25T09:32:56.967Z,98.28
2022-07-25T09:33:57.393Z,98.28
2022-07-25T09:34:59.837Z,98.79
2022-07-25T09:35:58.565Z,98.18
2022-07-25T09:36:55.734Z,98.08
2022-07-25T09:37:55.541Z,98.08
2022-07-25T09:38:55.296Z,97.78
2022-07-25T09:39:55.279Z,97.88
2022-07-25T09:40:55.263Z,98.18
2022-07-25T09:41:55.876Z,98.38
2022-07-25T09:42:55.236Z,97.38
2022-07-25T09:43:55.225Z,97.38
2022-07-25T09:44:55.207Z,97.78
2022-07-25T09:45:55.247Z,97.47
2022-07-25T09:46:55.189Z,97.38
2022-07-25T09:49:01.739Z,97.67
2022-07-25T09:49:07.769Z,98.13
2022-07-25T09:50:07.668Z,97.93
2022-07-25T09:56:35.367Z,97.13
2022-07-25T09:57:35.063Z,97.93
2022-07-25T09:58:35.055Z,98.03
2022-07-25T09:59:35.289Z,97.93
2022-07-25T10:00:35.109Z,98.44
2022-07-25T10:01:35.088Z,97.83
2022-07-25T10:02:35.034Z,97.13
2022-07-25T10:03:35.141Z,98.54
2022-07-25T10:04:35.028Z,97.73
2022-07-25T10:05:35.033Z,98.44
2022-07-25T10:06:34.969Z,98.44
2022-07-25T10:07:34.959Z,98.33
2022-07-25T10:08:34.953Z,97.83
2022-07-25T10:09:34.958Z,98.03
2022-07-25T10:10:34.929Z,98.19
2022-07-25T10:11:35.004Z,97.63
2022-07-25T10:12:34.909Z,98.44
2022-07-25T10:13:34.901Z,97.53
2022-07-25T10:14:34.893Z,97.33
2022-07-25T10:15:34.892Z,97.78
2022-07-25T10:16:34.973Z,97.89
2022-07-25T10:21:43.591Z,97.49
2022-07-25T10:22:58.844Z,97.28
2022-07-25T10:23:44.531Z,97.89
2022-07-25T10:24:43.522Z,97.99
2022-07-25T10:25:47.194Z,97.99
2022-07-25T10:26:45.155Z,98.09
2022-07-25T10:27:43.482Z,97.78
2022-07-25T10:28:43.492Z,97.49
2022-07-25T10:29:43.464Z,97.49
2022-07-25T10:30:43.520Z,96.68
2022-07-25T10:31:49.359Z,96.83
2022-07-25T10:32:44.457Z,97.03
2022-07-25T10:33:43.535Z,97.18
2022-07-25T10:34:43.416Z,97.28
2022-07-25T10:35:43.466Z,97.64
2022-07-25T10:36:43.398Z,97.84
2022-07-25T10:37:48.676Z,97.84
2022-07-25T10:38:44.413Z,97.44
2022-07-25T10:39:43.399Z,97.74
2022-07-25T10:40:43.357Z,97.28
2022-07-25T10:41:44.021Z,97.38
2022-07-25T10:42:43.359Z,96.88
2022-07-25T10:43:48.197Z,97.38
2022-07-25T10:44:44.352Z,97.69
2022-07-25T10:45:43.355Z,97.69
2022-07-25T10:46:43.365Z,98.49
2022-07-25T10:47:43.312Z,98.19
2022-07-25T10:48:43.363Z,98.33
2022-07-25T10:50:00.257Z,98.33
2022-07-25T10:50:55.527Z,98.03
2022-07-25T10:51:44.284Z,98.54
2022-07-25T10:52:43.272Z,98.29
2022-07-25T10:53:43.261Z,98.09
2022-07-25T10:54:43.891Z,98.39
2022-07-25T10:55:43.223Z,98.39
2022-07-25T10:56:43.242Z,97.38
2022-07-25T10:58:07.853Z,97.33
2022-07-25T10:58:44.227Z,98.54
2022-07-25T10:59:43.186Z,97.53
2022-07-25T11:00:43.155Z,97.74
2022-07-25T11:01:43.212Z,98.04
2022-07-25T11:02:43.223Z,97.38
2022-07-25T11:03:43.117Z,97.13
2022-07-25T11:04:43.117Z,97.94
2022-07-25T11:05:43.131Z,97.13
2022-07-25T11:06:43.087Z,96.93
2022-07-25T11:07:58.622Z,97.49
2022-07-25T11:08:44.132Z,96.98
2022-07-25T11:09:43.120Z,96.19
2022-07-25T11:10:43.041Z,96.78
2022-07-25T11:11:43.018Z,97.59
2022-07-25T11:12:43.030Z,96.98
2022-07-25T11:13:43.020Z,97.29
2022-07-25T11:14:43.020Z,96.54
2022-07-25T11:15:42.995Z,97.24
2022-07-25T11:16:43.086Z,97.14
2022-07-25T11:17:42.980Z,96.74
2022-07-25T11:18:43.000Z,97.04
2022-07-25T11:19:42.946Z,96.44
2022-07-25T11:20:42.962Z,96.94
2022-07-25T11:21:42.921Z,97.14
2022-07-25T11:22:42.922Z,96.84
2022-07-25T11:23:42.916Z,97.55
2022-07-25T11:24:42.895Z,96.64
2022-07-25T11:25:42.864Z,96.14
2022-07-25T11:26:42.906Z,97.04
2022-07-25T11:27:42.855Z,96.50
2022-07-25T11:28:42.836Z,96.80
2022-07-25T11:29:42.833Z,96.50
2022-07-25T11:30:42.848Z,97.00
2022-07-25T11:31:42.853Z,95.69
2022-07-25T11:32:43.172Z,95.99
2022-07-25T11:33:42.807Z,96.69
2022-07-25T11:34:42.774Z,96.59
2022-07-25T11:35:42.768Z,96.80
2022-07-25T11:36:42.750Z,96.69
2022-07-25T11:37:42.729Z,96.30
2022-07-25T11:38:42.789Z,96.45
2022-07-25T11:39:42.728Z,95.64
2022-07-25T11:40:42.741Z,95.64
2022-07-25T11:41:42.733Z,96.35
2022-07-25T11:42:42.725Z,95.44
2022-07-25T11:43:42.699Z,95.30
2022-07-25T11:44:47.234Z,95.00
2022-07-25T11:45:42.699Z,95.80
2022-07-25T11:46:42.692Z,95.90
2022-07-25T11:47:42.690Z,95.50
2022-07-25T11:48:42.734Z,95.60
2022-07-25T11:49:42.623Z,96.30
2022-07-25T11:50:42.644Z,96.41
2022-07-25T11:51:42.606Z,95.75
2022-07-25T11:52:42.637Z,95.64
2022-07-25T11:53:42.610Z,95.54
2022-07-25T11:54:42.616Z,95.84
2022-07-25T11:55:42.560Z,95.95
2022-07-25T11:56:43.604Z,95.64
2022-07-25T11:57:42.538Z,95.84
2022-07-25T11:58:42.530Z,94.94
2022-07-25T11:59:42.537Z,95.04
2022-07-25T12:00:42.512Z,96.65
2022-07-25T12:01:42.500Z,96.04
2022-07-25T12:02:42.616Z,95.24
2022-07-25T12:03:42.531Z,96.00
2022-07-25T12:04:42.463Z,96.00
2022-07-25T12:05:42.493Z,95.25
2022-07-25T12:06:42.453Z,95.25
2022-07-25T12:07:42.442Z,95.45
2022-07-25T12:08:42.444Z,94.95
2022-07-25T12:09:42.436Z,95.55
2022-07-25T12:10:42.424Z,96.15
2022-07-25T12:11:43.063Z,95.60
2022-07-25T12:12:43.872Z,95.80
2022-07-25T12:13:42.384Z,95.80
2022-07-25T12:14:43.005Z,95.60
2022-07-25T12:15:43.024Z,96.25
2022-07-25T12:16:42.464Z,96.35
2022-07-25T12:17:43.003Z,96.15
2022-07-25T12:18:42.366Z,96.04
2022-07-25T12:19:42.355Z,96.04
2022-07-25T12:20:42.348Z,96.80
2022-07-25T12:21:42.408Z,97.40
2022-07-25T12:22:42.299Z,97.20
2022-07-25T12:23:42.267Z,97.09
2022-07-25T12:24:42.280Z,97.00
2022-07-25T12:25:42.258Z,97.00
2022-07-25T12:26:42.307Z,96.89
2022-07-25T12:27:42.223Z,97.50
2022-07-25T12:28:43.305Z,97.30
2022-07-25T12:29:42.685Z,97.30
2022-07-25T12:30:42.276Z,97.90
2022-07-25T12:31:42.202Z,97.50
2022-07-25T12:32:42.212Z,97.30
2022-07-25T12:33:42.156Z,97.70
2022-07-25T12:34:43.246Z,98.20
2022-07-25T12:35:42.134Z,97.60
2022-07-25T12:36:42.116Z,97.64
2022-07-25T12:37:42.226Z,98.15
2022-07-25T12:38:42.135Z,98.15
2022-07-25T12:39:42.092Z,97.64
2022-07-25T12:40:42.074Z,97.64
2022-07-25T12:41:42.073Z,98.25
2022-07-25T12:42:42.064Z,98.35
2022-07-25T12:43:42.036Z,98.45
2022-07-25T12:44:42.059Z,98.95
2022-07-25T12:45:42.096Z,99.20
2022-07-25T12:46:47.388Z,99.80
2022-07-25T12:47:42.996Z,99.99
2022-07-25T12:48:42.025Z,99.99
2022-07-25T12:49:41.981Z,99.99
2022-07-25T12:50:42.788Z,99.99
2022-07-25T12:51:41.969Z,99.99
2022-07-25T12:52:41.948Z,99.99
2022-07-25T12:53:42.689Z,99.99
2022-07-25T12:54:41.930Z,99.99
2022-07-25T12:55:49.075Z,99.99
2022-07-25T12:57:53.512Z,99.99
2022-07-25T12:58:01.002Z,99.99
2022-07-25T12:58:59.576Z,99.99
2022-07-25T13:00:00.221Z,99.99
2022-07-25T13:01:02.249Z,99.99
2022-07-25T13:01:59.887Z,99.99